sensor_id;sensor_type;location;lat;lon;timestamp;pressure;altitude;pressure_sealevel;temperature
76895;BMP280;65855;42.030;13.078;2022-12-18T00:01:19;94341.13;;;5.11
76895;BMP280;65855;42.030;13.078;2022-12-18T00:03:45;94354.91;;;5.14
76895;BMP280;65855;42.030;13.078;2022-12-18T00:06:11;94347.84;;;5.11
76895;BMP280;65855;42.030;13.078;2022-12-18T00:08:37;94344.59;;;5.26
76895;BMP280;65855;42.030;13.078;2022-12-18T00:11:11;94344.47;;;5.33
76895;BMP280;65855;42.030;13.078;2022-12-18T00:13:37;94347.66;;;5.28
76895;BMP280;65855;42.030;13.078;2022-12-18T00:16:04;94347.34;;;5.41
76895;BMP280;65855;42.030;13.078;2022-12-18T00:18:30;94356.66;;;5.46
76895;BMP280;65855;42.030;13.078;2022-12-18T00:20:59;94355.53;;;5.53
76895;BMP280;65855;42.030;13.078;2022-12-18T00:23:26;94354.41;;;5.60
76895;BMP280;65855;42.030;13.078;2022-12-18T00:25:52;94363.66;;;5.60
76895;BMP280;65855;42.030;13.078;2022-12-18T00:28:18;94365.84;;;5.56
76895;BMP280;65855;42.030;13.078;2022-12-18T00:30:43;94358.41;;;5.61
76895;BMP280;65855;42.030;13.078;2022-12-18T00:33:09;94365.69;;;5.63
76895;BMP280;65855;42.030;13.078;2022-12-18T00:35:34;94372.06;;;5.70
76895;BMP280;65855;42.030;13.078;2022-12-18T00:38:00;94372.06;;;5.70
76895;BMP280;65855;42.030;13.078;2022-12-18T00:40:25;94377.06;;;5.70
76895;BMP280;65855;42.030;13.078;2022-12-18T00:42:51;94388.50;;;5.82
76895;BMP280;65855;42.030;13.078;2022-12-18T00:45:27;94383.13;;;5.90
76895;BMP280;65855;42.030;13.078;2022-12-18T00:47:53;94382.22;;;5.96
76895;BMP280;65855;42.030;13.078;2022-12-18T00:50:19;94384.25;;;5.99
76895;BMP280;65855;42.030;13.078;2022-12-18T00:52:44;94389.94;;;5.95
76895;BMP280;65855;42.030;13.078;2022-12-18T00:55:11;94398.28;;;5.84
76895;BMP280;65855;42.030;13.078;2022-12-18T00:57:36;94396.50;;;5.79
76895;BMP280;65855;42.030;13.078;2022-12-18T01:00:05;94396.50;;;5.79
76895;BMP280;65855;42.030;13.078;2022-12-18T01:02:30;94393.16;;;5.74
76895;BMP280;65855;42.030;13.078;2022-12-18T01:04:56;94398.59;;;5.71
76895;BMP280;65855;42.030;13.078;2022-12-18T01:07:22;94400.22;;;5.66
76895;BMP280;65855;42.030;13.078;2022-12-18T01:09:47;94399.28;;;5.67
76895;BMP280;65855;42.030;13.078;2022-12-18T01:12:12;94410.53;;;5.53
76895;BMP280;65855;42.030;13.078;2022-12-18T01:14:38;94413.88;;;5.42
76895;BMP280;65855;42.030;13.078;2022-12-18T01:17:03;94410.50;;;5.21
76895;BMP280;65855;42.030;13.078;2022-12-18T01:19:29;94409.34;;;5.12
76895;BMP280;65855;42.030;13.078;2022-12-18T01:21:55;94417.50;;;5.07
76895;BMP280;65855;42.030;13.078;2022-12-18T01:24:20;94418.63;;;5.00
76895;BMP280;65855;42.030;13.078;2022-12-18T01:26:46;94426.81;;;4.96
76895;BMP280;65855;42.030;13.078;2022-12-18T01:29:11;94436.06;;;4.95
76895;BMP280;65855;42.030;13.078;2022-12-18T01:31:37;94436.72;;;4.79
76895;BMP280;65855;42.030;13.078;2022-12-18T01:34:04;94442.25;;;4.81
76895;BMP280;65855;42.030;13.078;2022-12-18T01:36:34;94442.56;;;4.96
76895;BMP280;65855;42.030;13.078;2022-12-18T01:39:02;94446.84;;;5.12
76895;BMP280;65855;42.030;13.078;2022-12-18T01:41:29;94447.97;;;5.21
76895;BMP280;65855;42.030;13.078;2022-12-18T01:49:46;94456.88;;;5.28
76895;BMP280;65855;42.030;13.078;2022-12-18T01:52:11;94456.91;;;5.44
76895;BMP280;65855;42.030;13.078;2022-12-18T01:54:37;94455.25;;;5.66
76895;BMP280;65855;42.030;13.078;2022-12-18T01:57:03;94472.78;;;5.66
76895;BMP280;65855;42.030;13.078;2022-12-18T01:59:29;94464.59;;;5.54
76895;BMP280;65855;42.030;13.078;2022-12-18T02:01:56;94468.44;;;5.18
76895;BMP280;65855;42.030;13.078;2022-12-18T02:04:23;94474.41;;;5.17
76895;BMP280;65855;42.030;13.078;2022-12-18T02:06:55;94462.03;;;5.22
76895;BMP280;65855;42.030;13.078;2022-12-18T02:09:35;94462.13;;;5.70
76895;BMP280;65855;42.030;13.078;2022-12-18T02:12:19;94463.72;;;5.76
76895;BMP280;65855;42.030;13.078;2022-12-18T02:14:55;94462.88;;;5.71
76895;BMP280;65855;42.030;13.078;2022-12-18T02:17:56;94464.09;;;5.68
76895;BMP280;65855;42.030;13.078;2022-12-18T02:23:19;94470.72;;;5.63
76895;BMP280;65855;42.030;13.078;2022-12-18T02:26:42;94475.81;;;5.24
76895;BMP280;65855;42.030;13.078;2022-12-18T02:31:31;94473.16;;;5.03
76895;BMP280;65855;42.030;13.078;2022-12-18T02:34:02;94473.47;;;5.06
76895;BMP280;65855;42.030;13.078;2022-12-18T02:36:28;94469.69;;;5.04
76895;BMP280;65855;42.030;13.078;2022-12-18T02:38:55;94471.94;;;5.05
76895;BMP280;65855;42.030;13.078;2022-12-18T02:41:22;94481.94;;;5.05
76895;BMP280;65855;42.030;13.078;2022-12-18T02:43:48;94474.31;;;4.84
76895;BMP280;65855;42.030;13.078;2022-12-18T02:46:58;94478.31;;;4.74
76895;BMP280;65855;42.030;13.078;2022-12-18T02:49:40;94484.41;;;4.89
76895;BMP280;65855;42.030;13.078;2022-12-18T03:01:03;94495.28;;;4.83
76895;BMP280;65855;42.030;13.078;2022-12-18T03:03:54;94490.81;;;4.63
76895;BMP280;65855;42.030;13.078;2022-12-18T03:06:25;94496.50;;;4.47
76895;BMP280;65855;42.030;13.078;2022-12-18T03:08:57;94509.44;;;4.44
76895;BMP280;65855;42.030;13.078;2022-12-18T03:11:25;94496.81;;;4.17
76895;BMP280;65855;42.030;13.078;2022-12-18T03:14:13;94495.63;;;4.08
76895;BMP280;65855;42.030;13.078;2022-12-18T03:16:42;94488.13;;;3.97
76895;BMP280;65855;42.030;13.078;2022-12-18T03:19:11;94497.78;;;3.93
76895;BMP280;65855;42.030;13.078;2022-12-18T03:21:43;94491.84;;;4.06
76895;BMP280;65855;42.030;13.078;2022-12-18T03:24:11;94485.78;;;4.13
76895;BMP280;65855;42.030;13.078;2022-12-18T03:26:41;94492.81;;;4.16
76895;BMP280;65855;42.030;13.078;2022-12-18T03:29:44;94498.31;;;3.95
76895;BMP280;65855;42.030;13.078;2022-12-18T03:32:16;94503.16;;;3.79
76895;BMP280;65855;42.030;13.078;2022-12-18T03:34:46;94494.47;;;3.70
76895;BMP280;65855;42.030;13.078;2022-12-18T03:37:14;94499.63;;;3.98
76895;BMP280;65855;42.030;13.078;2022-12-18T03:39:40;94504.50;;;3.82
76895;BMP280;65855;42.030;13.078;2022-12-18T03:42:16;94502.41;;;3.67
76895;BMP280;65855;42.030;13.078;2022-12-18T03:47:16;94511.72;;;3.72
76895;BMP280;65855;42.030;13.078;2022-12-18T03:50:17;94504.38;;;3.88
76895;BMP280;65855;42.030;13.078;2022-12-18T03:55:23;94521.69;;;3.72
76895;BMP280;65855;42.030;13.078;2022-12-18T03:57:52;94526.28;;;3.46
76895;BMP280;65855;42.030;13.078;2022-12-18T04:00:18;94523.78;;;3.46
76895;BMP280;65855;42.030;13.078;2022-12-18T04:02:55;94522.25;;;3.85
76895;BMP280;65855;42.030;13.078;2022-12-18T04:05:25;94532.25;;;3.85
76895;BMP280;65855;42.030;13.078;2022-12-18T04:07:51;94528.28;;;3.66
76895;BMP280;65855;42.030;13.078;2022-12-18T04:10:17;94532.63;;;3.71
76895;BMP280;65855;42.030;13.078;2022-12-18T04:12:43;94539.66;;;3.34
76895;BMP280;65855;42.030;13.078;2022-12-18T04:15:09;94541.31;;;3.39
76895;BMP280;65855;42.030;13.078;2022-12-18T04:17:35;94547.69;;;3.35
76895;BMP280;65855;42.030;13.078;2022-12-18T04:20:01;94546.59;;;3.32
76895;BMP280;65855;42.030;13.078;2022-12-18T04:22:27;94548.53;;;3.30
76895;BMP280;65855;42.030;13.078;2022-12-18T04:24:52;94555.34;;;3.34
76895;BMP280;65855;42.030;13.078;2022-12-18T04:27:18;94559.50;;;3.40
76895;BMP280;65855;42.030;13.078;2022-12-18T04:29:44;94560.78;;;3.60
76895;BMP280;65855;42.030;13.078;2022-12-18T04:32:09;94567.63;;;3.64
76895;BMP280;65855;42.030;13.078;2022-12-18T04:34:34;94573.50;;;3.70
76895;BMP280;65855;42.030;13.078;2022-12-18T04:37:00;94567.50;;;3.31
76895;BMP280;65855;42.030;13.078;2022-12-18T04:39:25;94564.84;;;3.43
76895;BMP280;65855;42.030;13.078;2022-12-18T04:41:51;94564.66;;;3.74
76895;BMP280;65855;42.030;13.078;2022-12-18T04:44:17;94561.81;;;3.70
76895;BMP280;65855;42.030;13.078;2022-12-18T04:46:42;94572.03;;;4.20
76895;BMP280;65855;42.030;13.078;2022-12-18T04:49:08;94565.09;;;4.33
76895;BMP280;65855;42.030;13.078;2022-12-18T04:51:35;94563.53;;;4.10
76895;BMP280;65855;42.030;13.078;2022-12-18T04:54:01;94571.38;;;4.36
76895;BMP280;65855;42.030;13.078;2022-12-18T04:56:26;94568.47;;;4.39
76895;BMP280;65855;42.030;13.078;2022-12-18T04:58:52;94569.34;;;4.89
76895;BMP280;65855;42.030;13.078;2022-12-18T05:01:18;94567.78;;;4.88
76895;BMP280;65855;42.030;13.078;2022-12-18T05:03:43;94577.31;;;5.25
76895;BMP280;65855;42.030;13.078;2022-12-18T05:06:09;94567.28;;;5.36
76895;BMP280;65855;42.030;13.078;2022-12-18T05:08:35;94567.06;;;5.38
76895;BMP280;65855;42.030;13.078;2022-12-18T05:11:02;94574.19;;;5.46
76895;BMP280;65855;42.030;13.078;2022-12-18T05:13:29;94571.13;;;5.27
76895;BMP280;65855;42.030;13.078;2022-12-18T05:15:55;94579.75;;;4.98
76895;BMP280;65855;42.030;13.078;2022-12-18T05:18:21;94584.09;;;4.46
76895;BMP280;65855;42.030;13.078;2022-12-18T05:20:47;94592.88;;;4.48
76895;BMP280;65855;42.030;13.078;2022-12-18T05:23:12;94592.69;;;4.83
76895;BMP280;65855;42.030;13.078;2022-12-18T05:25:38;94595.72;;;4.85
76895;BMP280;65855;42.030;13.078;2022-12-18T05:28:03;94599.31;;;4.89
76895;BMP280;65855;42.030;13.078;2022-12-18T05:30:29;94606.47;;;4.97
76895;BMP280;65855;42.030;13.078;2022-12-18T05:32:54;94601.81;;;4.67
76895;BMP280;65855;42.030;13.078;2022-12-18T05:35:20;94606.06;;;4.78
76895;BMP280;65855;42.030;13.078;2022-12-18T05:37:45;94602.88;;;4.93
76895;BMP280;65855;42.030;13.078;2022-12-18T05:40:11;94605.59;;;4.92
76895;BMP280;65855;42.030;13.078;2022-12-18T05:42:37;94614.28;;;5.01
76895;BMP280;65855;42.030;13.078;2022-12-18T05:45:03;94619.28;;;5.01
76895;BMP280;65855;42.030;13.078;2022-12-18T05:47:28;94622.66;;;4.95
76895;BMP280;65855;42.030;13.078;2022-12-18T05:49:54;94625.25;;;4.66
76895;BMP280;65855;42.030;13.078;2022-12-18T05:52:20;94633.53;;;4.15
76895;BMP280;65855;42.030;13.078;2022-12-18T05:54:45;94638.25;;;3.76
76895;BMP280;65855;42.030;13.078;2022-12-18T05:57:10;94639.69;;;3.37
76895;BMP280;65855;42.030;13.078;2022-12-18T05:59:36;94640.50;;;3.13
76895;BMP280;65855;42.030;13.078;2022-12-18T06:02:01;94644.56;;;3.08
76895;BMP280;65855;42.030;13.078;2022-12-18T06:04:27;94650.06;;;3.16
76895;BMP280;65855;42.030;13.078;2022-12-18T06:06:54;94661.88;;;3.03
76895;BMP280;65855;42.030;13.078;2022-12-18T06:09:19;94665.81;;;2.93
76895;BMP280;65855;42.030;13.078;2022-12-18T06:11:45;94657.78;;;2.91
76895;BMP280;65855;42.030;13.078;2022-12-18T06:14:10;94661.25;;;3.08
76895;BMP280;65855;42.030;13.078;2022-12-18T06:16:36;94657.13;;;2.78
76895;BMP280;65855;42.030;13.078;2022-12-18T06:19:04;94666.38;;;3.12
76895;BMP280;65855;42.030;13.078;2022-12-18T06:21:30;94667.31;;;2.94
76895;BMP280;65855;42.030;13.078;2022-12-18T06:23:56;94664.56;;;2.60
76895;BMP280;65855;42.030;13.078;2022-12-18T06:26:21;94674.19;;;2.98
76895;BMP280;65855;42.030;13.078;2022-12-18T06:28:47;94677.66;;;3.15
76895;BMP280;65855;42.030;13.078;2022-12-18T06:31:12;94674.34;;;3.03
76895;BMP280;65855;42.030;13.078;2022-12-18T06:33:38;94685.19;;;3.09
76895;BMP280;65855;42.030;13.078;2022-12-18T06:36:06;94688.72;;;3.01
76895;BMP280;65855;42.030;13.078;2022-12-18T06:38:33;94689.06;;;3.05
76895;BMP280;65855;42.030;13.078;2022-12-18T06:40:59;94692.84;;;3.31
76895;BMP280;65855;42.030;13.078;2022-12-18T06:43:24;94687.50;;;3.45
76895;BMP280;65855;42.030;13.078;2022-12-18T06:45:50;94690.97;;;3.09
76895;BMP280;65855;42.030;13.078;2022-12-18T06:48:20;94696.00;;;3.03
76895;BMP280;65855;42.030;13.078;2022-12-18T06:50:46;94696.41;;;3.41
76895;BMP280;65855;42.030;13.078;2022-12-18T06:53:12;94699.84;;;3.76
76895;BMP280;65855;42.030;13.078;2022-12-18T06:55:37;94708.09;;;4.05
76895;BMP280;65855;42.030;13.078;2022-12-18T06:58:02;94716.69;;;3.80
76895;BMP280;65855;42.030;13.078;2022-12-18T07:00:28;94714.78;;;3.23
76895;BMP280;65855;42.030;13.078;2022-12-18T07:02:53;94719.41;;;2.95
76895;BMP280;65855;42.030;13.078;2022-12-18T07:05:19;94715.88;;;3.09
76895;BMP280;65855;42.030;13.078;2022-12-18T07:07:44;94715.22;;;3.37
76895;BMP280;65855;42.030;13.078;2022-12-18T07:10:10;94725.88;;;3.44
76895;BMP280;65855;42.030;13.078;2022-12-18T07:12:35;94720.88;;;3.44
76895;BMP280;65855;42.030;13.078;2022-12-18T07:15:01;94725.34;;;3.18
76895;BMP280;65855;42.030;13.078;2022-12-18T07:17:26;94726.81;;;3.26
76895;BMP280;65855;42.030;13.078;2022-12-18T07:19:52;94726.94;;;3.13
76895;BMP280;65855;42.030;13.078;2022-12-18T07:22:17;94734.66;;;3.05
76895;BMP280;65855;42.030;13.078;2022-12-18T07:24:43;94734.25;;;3.08
76895;BMP280;65855;42.030;13.078;2022-12-18T07:27:08;94733.75;;;3.24
76895;BMP280;65855;42.030;13.078;2022-12-18T07:29:34;94736.69;;;3.56
76895;BMP280;65855;42.030;13.078;2022-12-18T07:31:59;94740.56;;;3.70
76895;BMP280;65855;42.030;13.078;2022-12-18T07:34:25;94744.97;;;4.21
76895;BMP280;65855;42.030;13.078;2022-12-18T07:36:50;94748.34;;;5.06
76895;BMP280;65855;42.030;13.078;2022-12-18T07:39:15;94736.66;;;5.75
76895;BMP280;65855;42.030;13.078;2022-12-18T07:41:41;94740.56;;;6.48
76895;BMP280;65855;42.030;13.078;2022-12-18T07:44:29;94744.84;;;7.23
76895;BMP280;65855;42.030;13.078;2022-12-18T07:46:54;94738.22;;;7.18
76895;BMP280;65855;42.030;13.078;2022-12-18T07:49:20;94747.34;;;7.40
76895;BMP280;65855;42.030;13.078;2022-12-18T07:51:45;94752.97;;;8.94
76895;BMP280;65855;42.030;13.078;2022-12-18T07:54:14;94745.41;;;9.25
76895;BMP280;65855;42.030;13.078;2022-12-18T07:56:39;94744.63;;;9.24
76895;BMP280;65855;42.030;13.078;2022-12-18T07:59:05;94761.09;;;9.06
76895;BMP280;65855;42.030;13.078;2022-12-18T08:01:30;94761.09;;;9.06
76895;BMP280;65855;42.030;13.078;2022-12-18T08:03:57;94756.75;;;8.23
76895;BMP280;65855;42.030;13.078;2022-12-18T08:06:23;94750.03;;;9.37
76895;BMP280;65855;42.030;13.078;2022-12-18T08:08:48;94764.56;;;9.00
76895;BMP280;65855;42.030;13.078;2022-12-18T08:11:13;94761.03;;;8.96
76895;BMP280;65855;42.030;13.078;2022-12-18T08:13:39;94758.41;;;9.48
76895;BMP280;65855;42.030;13.078;2022-12-18T08:16:06;94759.91;;;8.82
76895;BMP280;65855;42.030;13.078;2022-12-18T08:18:33;94763.19;;;8.62
76895;BMP280;65855;42.030;13.078;2022-12-18T08:21:29;94759.53;;;8.48
76895;BMP280;65855;42.030;13.078;2022-12-18T08:23:54;94766.69;;;8.61
76895;BMP280;65855;42.030;13.078;2022-12-18T08:26:20;94770.69;;;9.09
76895;BMP280;65855;42.030;13.078;2022-12-18T08:28:46;94768.84;;;9.30
76895;BMP280;65855;42.030;13.078;2022-12-18T08:31:11;94774.22;;;9.08
76895;BMP280;65855;42.030;13.078;2022-12-18T08:33:37;94775.00;;;10.25
76895;BMP280;65855;42.030;13.078;2022-12-18T08:36:05;94769.47;;;11.47
76895;BMP280;65855;42.030;13.078;2022-12-18T08:38:31;94771.28;;;12.33
76895;BMP280;65855;42.030;13.078;2022-12-18T08:41:09;94767.31;;;12.13
76895;BMP280;65855;42.030;13.078;2022-12-18T08:43:34;94772.94;;;12.67
76895;BMP280;65855;42.030;13.078;2022-12-18T08:46:19;94772.72;;;12.54
76895;BMP280;65855;42.030;13.078;2022-12-18T08:48:45;94784.34;;;13.12
76895;BMP280;65855;42.030;13.078;2022-12-18T08:51:10;94777.63;;;13.87
76895;BMP280;65855;42.030;13.078;2022-12-18T08:53:36;94771.53;;;14.39
76895;BMP280;65855;42.030;13.078;2022-12-18T08:56:03;94784.19;;;12.37
76895;BMP280;65855;42.030;13.078;2022-12-18T08:58:29;94798.97;;;11.32
76895;BMP280;65855;42.030;13.078;2022-12-18T09:00:59;94791.09;;;12.02
76895;BMP280;65855;42.030;13.078;2022-12-18T09:03:25;94791.34;;;12.05
76895;BMP280;65855;42.030;13.078;2022-12-18T09:05:51;94792.63;;;11.00
76895;BMP280;65855;42.030;13.078;2022-12-18T09:08:16;94791.59;;;10.96
76895;BMP280;65855;42.030;13.078;2022-12-18T09:10:46;94784.91;;;10.46
76895;BMP280;65855;42.030;13.078;2022-12-18T09:13:12;94780.03;;;10.25
76895;BMP280;65855;42.030;13.078;2022-12-18T09:15:55;94790.22;;;10.55
76895;BMP280;65855;42.030;13.078;2022-12-18T09:18:22;94792.88;;;11.18
76895;BMP280;65855;42.030;13.078;2022-12-18T09:20:48;94782.78;;;11.97
76895;BMP280;65855;42.030;13.078;2022-12-18T09:23:15;94798.22;;;11.36
76895;BMP280;65855;42.030;13.078;2022-12-18T09:25:40;94800.19;;;12.08
76895;BMP280;65855;42.030;13.078;2022-12-18T09:28:11;94789.34;;;12.02
76895;BMP280;65855;42.030;13.078;2022-12-18T09:30:38;94791.31;;;12.20
76895;BMP280;65855;42.030;13.078;2022-12-18T09:33:03;94785.06;;;11.98
76895;BMP280;65855;42.030;13.078;2022-12-18T09:35:29;94785.31;;;13.11
76895;BMP280;65855;42.030;13.078;2022-12-18T09:37:54;94791.81;;;13.93
76895;BMP280;65855;42.030;13.078;2022-12-18T09:40:23;94791.28;;;13.30
76895;BMP280;65855;42.030;13.078;2022-12-18T09:42:59;94786.56;;;12.71
76895;BMP280;65855;42.030;13.078;2022-12-18T09:45:26;94790.41;;;13.11
76895;BMP280;65855;42.030;13.078;2022-12-18T09:47:53;94792.41;;;12.72
76895;BMP280;65855;42.030;13.078;2022-12-18T09:50:30;94795.28;;;12.41
76895;BMP280;65855;42.030;13.078;2022-12-18T09:52:59;94791.00;;;12.36
76895;BMP280;65855;42.030;13.078;2022-12-18T09:55:35;94796.34;;;12.35
76895;BMP280;65855;42.030;13.078;2022-12-18T09:58:30;94803.41;;;13.38
76895;BMP280;65855;42.030;13.078;2022-12-18T10:00:57;94800.97;;;15.53
76895;BMP280;65855;42.030;13.078;2022-12-18T10:03:23;94795.63;;;15.99
76895;BMP280;65855;42.030;13.078;2022-12-18T10:11:10;94788.63;;;17.24
76895;BMP280;65855;42.030;13.078;2022-12-18T10:13:52;94786.16;;;18.05
76895;BMP280;65855;42.030;13.078;2022-12-18T10:17:24;94781.97;;;18.85
76895;BMP280;65855;42.030;13.078;2022-12-18T10:19:32;94781.97;;;19.02
76895;BMP280;65855;42.030;13.078;2022-12-18T10:27:29;94767.91;;;19.99
76895;BMP280;65855;42.030;13.078;2022-12-18T10:29:55;94769.00;;;19.90
76895;BMP280;65855;42.030;13.078;2022-12-18T10:32:24;94770.06;;;19.89
76895;BMP280;65855;42.030;13.078;2022-12-18T10:34:52;94769.69;;;20.16
76895;BMP280;65855;42.030;13.078;2022-12-18T10:37:21;94762.25;;;20.68
76895;BMP280;65855;42.030;13.078;2022-12-18T10:40:06;94772.41;;;20.56
76895;BMP280;65855;42.030;13.078;2022-12-18T10:42:32;94754.63;;;20.79
76895;BMP280;65855;42.030;13.078;2022-12-18T10:45:05;94757.38;;;20.46
76895;BMP280;65855;42.030;13.078;2022-12-18T10:47:33;94763.59;;;17.69
76895;BMP280;65855;42.030;13.078;2022-12-18T10:49:59;94757.78;;;17.12
76895;BMP280;65855;42.030;13.078;2022-12-18T10:52:25;94763.25;;;14.92
76895;BMP280;65855;42.030;13.078;2022-12-18T10:54:54;94765.03;;;15.10
76895;BMP280;65855;42.030;13.078;2022-12-18T10:59:54;94756.88;;;15.76
76895;BMP280;65855;42.030;13.078;2022-12-18T11:02:46;94758.97;;;14.70
76895;BMP280;65855;42.030;13.078;2022-12-18T11:05:33;94764.53;;;14.31
76895;BMP280;65855;42.030;13.078;2022-12-18T11:08:02;94767.78;;;15.32
76895;BMP280;65855;42.030;13.078;2022-12-18T11:10:33;94762.91;;;16.24
76895;BMP280;65855;42.030;13.078;2022-12-18T11:13:20;94761.88;;;15.18
76895;BMP280;65855;42.030;13.078;2022-12-18T11:15:46;94759.69;;;16.19
76895;BMP280;65855;42.030;13.078;2022-12-18T11:18:33;94747.44;;;16.21
76895;BMP280;65855;42.030;13.078;2022-12-18T11:21:06;94748.53;;;16.02
76895;BMP280;65855;42.030;13.078;2022-12-18T11:23:33;94748.19;;;15.63
76895;BMP280;65855;42.030;13.078;2022-12-18T11:26:01;94739.59;;;16.31
76895;BMP280;65855;42.030;13.078;2022-12-18T11:28:43;94740.13;;;16.67
76895;BMP280;65855;42.030;13.078;2022-12-18T11:31:27;94745.09;;;18.15
76895;BMP280;65855;42.030;13.078;2022-12-18T11:33:58;94743.59;;;18.22
76895;BMP280;65855;42.030;13.078;2022-12-18T11:36:29;94739.38;;;19.81
76895;BMP280;65855;42.030;13.078;2022-12-18T11:38:57;94736.22;;;21.58
76895;BMP280;65855;42.030;13.078;2022-12-18T11:41:33;94732.75;;;22.17
76895;BMP280;65855;42.030;13.078;2022-12-18T11:44:43;94740.03;;;20.51
76895;BMP280;65855;42.030;13.078;2022-12-18T11:47:45;94731.00;;;23.31
76895;BMP280;65855;42.030;13.078;2022-12-18T11:50:18;94725.88;;;22.57
76895;BMP280;65855;42.030;13.078;2022-12-18T11:52:44;94736.94;;;22.57
76895;BMP280;65855;42.030;13.078;2022-12-18T11:55:15;94724.09;;;23.46
76895;BMP280;65855;42.030;13.078;2022-12-18T12:03:44;94723.31;;;24.00
76895;BMP280;65855;42.030;13.078;2022-12-18T12:06:28;94706.44;;;24.17
76895;BMP280;65855;42.030;13.078;2022-12-18T12:12:07;94722.47;;;22.17
76895;BMP280;65855;42.030;13.078;2022-12-18T12:17:42;94731.47;;;18.91
76895;BMP280;65855;42.030;13.078;2022-12-18T12:23:09;94723.25;;;23.69
76895;BMP280;65855;42.030;13.078;2022-12-18T12:25:41;94707.66;;;22.62
76895;BMP280;65855;42.030;13.078;2022-12-18T12:36:31;94716.69;;;18.79
76895;BMP280;65855;42.030;13.078;2022-12-18T12:39:06;94719.88;;;19.18
76895;BMP280;65855;42.030;13.078;2022-12-18T12:41:33;94720.56;;;21.83
76895;BMP280;65855;42.030;13.078;2022-12-18T12:44:25;94711.81;;;24.43
76895;BMP280;65855;42.030;13.078;2022-12-18T12:46:55;94704.28;;;22.46
76895;BMP280;65855;42.030;13.078;2022-12-18T12:49:26;94712.56;;;24.43
76895;BMP280;65855;42.030;13.078;2022-12-18T12:52:27;94709.25;;;24.92
76895;BMP280;65855;42.030;13.078;2022-12-18T12:54:54;94716.97;;;20.43
76895;BMP280;65855;42.030;13.078;2022-12-18T12:57:31;94724.47;;;18.58
76895;BMP280;65855;42.030;13.078;2022-12-18T13:05:38;94712.63;;;20.92
76895;BMP280;65855;42.030;13.078;2022-12-18T13:08:07;94710.97;;;23.24
76895;BMP280;65855;42.030;13.078;2022-12-18T13:10:38;94709.13;;;26.00
76895;BMP280;65855;42.030;13.078;2022-12-18T13:13:08;94703.47;;;26.13
76895;BMP280;65855;42.030;13.078;2022-12-18T13:20:38;94712.91;;;26.50
76895;BMP280;65855;42.030;13.078;2022-12-18T13:25:45;94708.91;;;23.03
76895;BMP280;65855;42.030;13.078;2022-12-18T13:28:13;94716.97;;;21.52
76895;BMP280;65855;42.030;13.078;2022-12-18T13:43:32;94741.31;;;18.67
76895;BMP280;65855;42.030;13.078;2022-12-18T13:48:33;94747.94;;;18.76
76895;BMP280;65855;42.030;13.078;2022-12-18T13:51:05;94742.16;;;20.70
76895;BMP280;65855;42.030;13.078;2022-12-18T13:53:53;94745.63;;;20.08
76895;BMP280;65855;42.030;13.078;2022-12-18T13:56:25;94746.63;;;17.94
76895;BMP280;65855;42.030;13.078;2022-12-18T14:01:46;94768.47;;;15.37
76895;BMP280;65855;42.030;13.078;2022-12-18T14:04:16;94766.78;;;16.22
76895;BMP280;65855;42.030;13.078;2022-12-18T14:06:43;94760.94;;;15.77
76895;BMP280;65855;42.030;13.078;2022-12-18T14:09:16;94767.00;;;14.36
76895;BMP280;65855;42.030;13.078;2022-12-18T14:11:49;94774.00;;;14.20
76895;BMP280;65855;42.030;13.078;2022-12-18T14:14:16;94779.50;;;15.28
76895;BMP280;65855;42.030;13.078;2022-12-18T14:16:42;94779.09;;;17.80
76895;BMP280;65855;42.030;13.078;2022-12-18T14:19:13;94771.94;;;19.05
76895;BMP280;65855;42.030;13.078;2022-12-18T14:21:40;94769.78;;;17.11
76895;BMP280;65855;42.030;13.078;2022-12-18T14:24:25;94784.72;;;14.82
76895;BMP280;65855;42.030;13.078;2022-12-18T14:26:51;94786.00;;;13.87
76895;BMP280;65855;42.030;13.078;2022-12-18T14:29:30;94798.97;;;11.86
76895;BMP280;65855;42.030;13.078;2022-12-18T14:32:13;94810.28;;;10.95
76895;BMP280;65855;42.030;13.078;2022-12-18T14:34:52;94818.38;;;11.02
76895;BMP280;65855;42.030;13.078;2022-12-18T14:37:26;94820.97;;;10.01
76895;BMP280;65855;42.030;13.078;2022-12-18T14:40:12;94828.81;;;9.38
76895;BMP280;65855;42.030;13.078;2022-12-18T14:42:38;94828.66;;;9.49
76895;BMP280;65855;42.030;13.078;2022-12-18T14:47:58;94834.38;;;9.40
76895;BMP280;65855;42.030;13.078;2022-12-18T14:50:24;94836.00;;;8.99
76895;BMP280;65855;42.030;13.078;2022-12-18T14:52:50;94836.75;;;8.99
76895;BMP280;65855;42.030;13.078;2022-12-18T14:55:19;94844.66;;;8.87
76895;BMP280;65855;42.030;13.078;2022-12-18T14:57:45;94847.94;;;8.87
76895;BMP280;65855;42.030;13.078;2022-12-18T15:00:17;94849.84;;;8.75
76895;BMP280;65855;42.030;13.078;2022-12-18T15:02:46;94849.72;;;8.65
76895;BMP280;65855;42.030;13.078;2022-12-18T15:07:43;94861.00;;;8.63
76895;BMP280;65855;42.030;13.078;2022-12-18T15:12:36;94864.84;;;8.28
76895;BMP280;65855;42.030;13.078;2022-12-18T15:15:03;94866.31;;;8.24
76895;BMP280;65855;42.030;13.078;2022-12-18T15:17:30;94867.22;;;8.18
76895;BMP280;65855;42.030;13.078;2022-12-18T15:20:01;94867.41;;;7.80
76895;BMP280;65855;42.030;13.078;2022-12-18T15:22:29;94868.47;;;7.67
76895;BMP280;65855;42.030;13.078;2022-12-18T15:24:56;94873.31;;;7.58
76895;BMP280;65855;42.030;13.078;2022-12-18T15:27:33;94872.41;;;7.64
76895;BMP280;65855;42.030;13.078;2022-12-18T15:32:39;94874.22;;;7.84
76895;BMP280;65855;42.030;13.078;2022-12-18T15:37:43;94880.56;;;7.11
76895;BMP280;65855;42.030;13.078;2022-12-18T15:40:13;94885.47;;;6.78
76895;BMP280;65855;42.030;13.078;2022-12-18T15:42:39;94888.25;;;6.93
76895;BMP280;65855;42.030;13.078;2022-12-18T15:45:23;94888.16;;;7.16
76895;BMP280;65855;42.030;13.078;2022-12-18T15:47:49;94896.03;;;7.35
76895;BMP280;65855;42.030;13.078;2022-12-18T15:50:14;94899.78;;;6.94
76895;BMP280;65855;42.030;13.078;2022-12-18T15:52:43;94894.47;;;6.52
76895;BMP280;65855;42.030;13.078;2022-12-18T15:55:29;94906.59;;;6.32
76895;BMP280;65855;42.030;13.078;2022-12-18T15:58:13;94908.06;;;6.56
76895;BMP280;65855;42.030;13.078;2022-12-18T16:00:39;94902.78;;;6.80
76895;BMP280;65855;42.030;13.078;2022-12-18T16:03:05;94907.41;;;6.60
76895;BMP280;65855;42.030;13.078;2022-12-18T16:05:31;94914.16;;;6.48